Flight Track Log - Related Links

Times and Time Zones

All times are in EDT time to prevent confusion due to time zone crossing. See the DAL268 flight status page for this flight to view local times or setup timezone preferences in your user account.

Time Position Orientation Groundspeed Altitude Reporting Facility
EDT Latitude Longitude Course Direction KTS MPH feet Rate Location/Type
Mon 02:17:28 PM 37.6150 -122.3820 North 2 2  Level FlightAware ADS-B
Mon 02:19:16 PM 37.6160 -122.3810 38° Northeast 10 12 19 Level FlightAware ADS-B
Mon 02:19:55 PM 37.6150 -122.3810 180° South 10 12 23 Level FlightAware ADS-B
Mon 02:22:00 PM 37.7973 -122.1860 38° Northeast  Level FlightAware Approximate
Mon 02:23:00 PM 37.8884 -122.0950 38° Northeast  Level FlightAware Approximate
Mon 02:24:00 PM 37.9794 -122.0039 38° Northeast  Level FlightAware Approximate
Mon 02:24:34 PM 37.6120 -122.3830 38° Northeast 33 38  Level FlightAware ADS-B
Mon 02:24:59 PM 37.6090 -122.3840 195° South 33 38 59 Level FlightAware ADS-B
Mon 02:25:30 PM 37.6090 -122.3840 195° South 31 36 67 Level FlightAware ADS-B
Mon 02:25:46 PM 37.6080 -122.3850 218° Southwest 24 28 82 Level FlightAware ADS-B
Mon 02:25:59 PM 37.6080 -122.3840 90° East 21 24 92 Level FlightAware ADS-B
Mon 02:26:09 PM 37.6070 -122.3840 180° South 27 31 102 Level FlightAware ADS-B
Mon 02:26:27 PM 37.6060 -122.3830 142° Southeast 30 35 111 Level FlightAware ADS-B
Mon 02:27:23 PM 37.6080 -122.3800 50° Northeast 31 36 133 Level FlightAware ADS-B
Mon 02:27:57 PM 37.6252 -122.3680 29° Northeast 179 206 200 1,200 Climbing FlightAware ADS-B
Mon 02:28:13 PM 37.6359 -122.3610 27° Northeast 166 191 1,000 2,870 Climbing FlightAware ADS-B
Mon 02:28:20 PM 37.6400 -122.3570 38° Northeast 173 199 1,300 2,182 Climbing FlightAware ADS-B
Mon 02:28:24 PM 37.6425 -122.3550 32° Northeast 177 204 1,400 2,000 Climbing FlightAware ADS-B
Mon 02:28:29 PM 37.6457 -122.3510 45° Northeast 180 207 1,600 2,100 Climbing FlightAware ADS-B
Mon 02:28:44 PM 37.6553 -122.3390 45° Northeast 192 221 2,100 1,742 Climbing FlightAware ADS-B
Mon 02:29:00 PM 37.6660 -122.3260 44° Northeast 220 253 2,500 1,742 Climbing FlightAware ADS-B
Mon 02:29:15 PM 37.6771 -122.3110 47° Northeast 238 274 3,000 2,200 Climbing FlightAware ADS-B
Mon 02:29:30 PM 37.6890 -122.2950 47° Northeast 245 282 3,600 2,000 Climbing FlightAware ADS-B
Mon 02:29:39 PM 37.6966 -122.2850 46° Northeast 265 305 3,800 1,875 Climbing FlightAware ADS-B
Mon 02:29:46 PM 37.7030 -122.2770 45° Northeast 271 312 4,100 2,609 Climbing FlightAware ADS-B
Mon 02:30:02 PM 37.7182 -122.2610 40° Northeast 279 321 4,800 3,097 Climbing FlightAware ADS-B
Mon 02:30:17 PM 37.7334 -122.2460 38° Northeast 279 321 5,700 3,209 Climbing FlightAware ADS-B
Mon 02:30:45 PM 37.7624 -122.2180 37° Northeast 287 330 7,100 3,125 Climbing FlightAware ADS-B
Mon 02:31:05 PM 37.7842 -122.1960 39° Northeast 287 330 8,200 2,842 Climbing FlightAware ADS-B
Mon 02:31:23 PM 37.8029 -122.1790 36° Northeast 293 337 8,900 2,545 Climbing FlightAware ADS-B
Mon 02:31:38 PM 37.8203 -122.1620 38° Northeast 301 346 9,600 2,217 Climbing FlightAware ADS-B
Mon 02:32:09 PM 37.8557 -122.1280 37° Northeast 326 375 10,600 1,548 Climbing FlightAware ADS-B
Mon 02:32:40 PM 37.8946 -122.0900 38° Northeast 363 418 11,200 1,475 Climbing FlightAware ADS-B
Mon 02:33:10 PM 37.9366 -122.0490 38° Northeast 390 449 12,100 2,235 Climbing FlightAware ADS-B
Mon 02:34:22 PM 38.0418 -121.9470 37° Northeast 404 465 15,000 2,270 Climbing FlightAware ADS-B
Mon 02:35:01 PM 38.1000 -121.8890 38° Northeast 419 482 16,300 2,127 Climbing FlightAware ADS-B
Mon 02:35:41 PM 38.1630 -121.8280 37° Northeast 428 493 17,800 2,027 Climbing FlightAware ADS-B
Mon 02:36:15 PM 38.2160 -121.7760 38° Northeast 436 502 18,800 1,816 Climbing FlightAware ADS-B
Mon 02:36:57 PM 38.2840 -121.7090 38° Northeast 447 514 20,100 1,884 Climbing FlightAware ADS-B
Mon 02:37:41 PM 38.3580 -121.6360 38° Northeast 458 527 21,500 1,948 Climbing FlightAware ADS-B
Mon 02:38:14 PM 38.4145 -121.5800 38° Northeast 452 520 22,600 1,857 Climbing FlightAware ADS-B
Mon 02:39:05 PM 38.4880 -121.4770 48° Northeast 468 539 24,100 1,648 Climbing FlightAware ADS-B
Mon 02:39:45 PM 38.5390 -121.3890 53° Northeast 476 548 25,100 1,421 Climbing FlightAware ADS-B
Mon 02:40:21 PM 38.5870 -121.3050 54° Northeast 487 560 25,900 1,186 Climbing FlightAware ADS-B
Mon 02:41:11 PM 38.6540 -121.1910 53° Northeast 499 574 26,800 1,133 Climbing FlightAware ADS-B
Mon 02:41:51 PM 38.7100 -121.0930 54° Northeast 507 583 27,600 1,286 Climbing FlightAware ADS-B
Mon 02:42:35 PM 38.7710 -120.9870 54° Northeast 510 587 28,600 1,500 Climbing FlightAware ADS-B
Mon 02:43:03 PM 38.8100 -120.9200 53° Northeast 508 585 29,400 1,701 Climbing FlightAware ADS-B
Mon 02:43:42 PM 38.8650 -120.8250 53° Northeast 506 582 30,500 1,463 Climbing FlightAware ADS-B
Mon 02:44:25 PM 38.9260 -120.7200 53° Northeast 509 586 31,400 1,341 Climbing FlightAware ADS-B
Mon 02:45:07 PM 38.9830 -120.6210 53° Northeast 507 583 32,400 1,200 Climbing FlightAware ADS-B
Mon 02:45:45 PM 39.0370 -120.5260 54° Northeast 508 585 33,000 474 Climbing FlightAware ADS-B
Mon 02:46:23 PM 39.0890 -120.4370 53° Northeast 507 583 33,000  Level FlightAware ADS-B
Mon 02:46:59 PM 39.1390 -120.3490 54° Northeast 510 587 33,000  Level FlightAware ADS-B
Mon 02:47:42 PM 39.2010 -120.2410 53° Northeast 514 592 33,000  Level FlightAware ADS-B
Mon 02:48:20 PM 39.2550 -120.1460 54° Northeast 516 594 33,000  Level FlightAware ADS-B
Mon 02:49:03 PM 39.3140 -120.0420 54° Northeast 517 595 33,000  Level FlightAware ADS-B
Mon 02:49:36 PM 39.3610 -119.9590 54° Northeast 517 595 33,000  Level FlightAware ADS-B
Mon 02:50:12 PM 39.4120 -119.8680 54° Northeast 517 595 33,000  Level FlightAware ADS-B
Mon 02:51:00 PM 39.4790 -119.7490 54° Northeast 517 595 33,000 68 Level FlightAware ADS-B
Mon 02:51:40 PM 39.5350 -119.6500 54° Northeast 515 593 33,100 300 Climbing FlightAware ADS-B
Mon 02:52:20 PM 39.5910 -119.5500 54° Northeast 510 587 33,400 395 Climbing FlightAware ADS-B
Mon 02:52:56 PM 39.6370 -119.4660 55° Northeast 509 586 33,600 375 Climbing FlightAware ADS-B
Mon 02:53:40 PM 39.7010 -119.3520 54° Northeast 508 585 33,900 357 Climbing FlightAware ADS-B
Mon 02:54:20 PM 39.7560 -119.2510 55° Northeast 510 587 34,100 366 Climbing FlightAware ADS-B
Mon 02:55:02 PM 39.8140 -119.1470 54° Northeast 512 589 34,400 419 Climbing FlightAware ADS-B
Mon 02:55:46 PM 39.8740 -119.0370 55° Northeast 513 590 34,700 439 Climbing FlightAware ADS-B
Mon 02:56:24 PM 39.9270 -118.9420 54° Northeast 511 588 35,000 220 Climbing FlightAware ADS-B
Mon 02:57:08 PM 39.9840 -118.8300 56° Northeast 510 587 35,000  Level FlightAware ADS-B
Mon 02:57:44 PM 40.0200 -118.7290 65° Northeast 506 582 35,000  Level FlightAware ADS-B
Mon 02:58:24 PM 40.0550 -118.6150 68° East 507 583 35,000  Level FlightAware ADS-B
Mon 02:59:10 PM 40.0940 -118.4860 68° East 506 582 35,000  Level FlightAware ADS-B
Mon 02:59:42 PM 40.1220 -118.3950 68° East 505 581 35,000  Level FlightAware ADS-B
Mon 03:00:25 PM 40.1570 -118.2750 69° East 504 580 35,000  Level FlightAware ADS-B
Mon 03:01:08 PM 40.1940 -118.1500 69° East 503 579 35,000  Level FlightAware ADS-B
Mon 03:01:47 PM 40.2260 -118.0400 69° East 502 578 35,000  Level FlightAware ADS-B
Mon 03:02:29 PM 40.2620 -117.9200 69° East 501 577 35,000  Level FlightAware ADS-B
Mon 03:03:14 PM 40.2950 -117.8060 69° East 501 577 35,000  Level FlightAware ADS-B
Mon 03:03:50 PM 40.3200 -117.7200 69° East 501 577 35,000  Level FlightAware ADS-B
Mon 03:04:38 PM 40.3540 -117.6040 69° East 501 577 35,000  Level FlightAware ADS-B
Mon 03:05:14 PM 40.3790 -117.5170 69° East 501 577 35,000  Level FlightAware ADS-B
Mon 03:06:02 PM 40.4130 -117.4010 69° East 501 577 35,000  Level FlightAware ADS-B
Mon 03:06:38 PM 40.4390 -117.3140 69° East 501 577 35,000  Level FlightAware ADS-B
Mon 03:07:27 PM 40.4730 -117.1950 69° East 501 577 35,000  Level FlightAware ADS-B
Mon 03:08:03 PM 40.4990 -117.1080 69° East 501 577 35,000  Level FlightAware ADS-B
Mon 03:08:39 PM 40.5240 -117.0210 69° East 501 577 35,000  Level FlightAware ADS-B
Mon 03:09:27 PM 40.5580 -116.9050 69° East 501 577 35,000  Level FlightAware ADS-B
Mon 03:10:03 PM 40.5830 -116.8180 69° East 501 577 35,000  Level FlightAware ADS-B
Mon 03:10:39 PM 40.6090 -116.7310 68° East 501 577 35,000  Level FlightAware ADS-B
Mon 03:11:40 PM 40.6520 -116.5830 69° East 501 577 35,000  Level FlightAware ADS-B
Mon 03:12:28 PM 40.6860 -116.4660 69° East 501 577 35,000  Level FlightAware ADS-B
Mon 03:13:04 PM 40.7667 -116.1319 69° East 506 582 35,000  Level Salt Lake Center
Mon 03:14:06 PM 40.8203 -115.9386 70° East 504 580 35,000  Level Salt Lake Center
Mon 03:15:08 PM 40.8650 -115.7719 70° East 503 579 35,000  Level Salt Lake Center
Mon 03:20:59 PM 41.1390 -114.7270 70° East 505 581 35,000  Level FlightAware ADS-B
Mon 03:21:42 PM 41.1680 -114.6140 71° East 504 580 35,000  Level FlightAware ADS-B
Mon 03:22:17 PM 41.1970 -114.5020 71° East 501 577 35,000  Level FlightAware ADS-B
Mon 03:22:59 PM 41.2270 -114.3810 72° East 501 577 35,000  Level FlightAware ADS-B
Mon 03:23:48 PM 41.2590 -114.2600 71° East 501 577 35,000  Level FlightAware ADS-B
Mon 03:24:24 PM 41.2820 -114.1710 71° East 501 577 35,000  Level FlightAware ADS-B
Mon 03:25:25 PM 41.3210 -114.0190 71° East 501 577 35,000  Level FlightAware ADS-B
Mon 03:26:03 PM 41.3600 -113.8420 74° East 500 575 35,000  Level FlightAware ADS-B
Mon 03:26:47 PM 41.3800 -113.7090 79° East 497 572 35,000  Level FlightAware ADS-B
Mon 03:27:31 PM 41.3970 -113.5760 80° East 496 571 35,000  Level FlightAware ADS-B
Mon 03:28:11 PM 41.4130 -113.4540 80° East 496 571 35,000  Level FlightAware ADS-B
Mon 03:28:55 PM 41.4290 -113.3220 81° East 497 572 35,000  Level FlightAware ADS-B
Mon 03:29:31 PM 41.4430 -113.2130 80° East 497 572 35,000  Level FlightAware ADS-B
Mon 03:30:07 PM 41.4560 -113.1060 81° East 497 572 35,000  Level FlightAware ADS-B
Mon 03:30:53 PM 41.4730 -112.9660 81° East 497 572 35,000  Level FlightAware ADS-B
Mon 03:31:37 PM 41.4900 -112.8330 80° East 497 572 35,000  Level FlightAware ADS-B
Mon 03:32:17 PM 41.5040 -112.7120 81° East 496 571 35,000  Level FlightAware ADS-B
Mon 03:33:01 PM 41.5200 -112.5800 81° East 496 571 35,000  Level FlightAware ADS-B
Mon 03:33:41 PM 41.5340 -112.4610 81° East 495 570 35,000  Level FlightAware ADS-B
Mon 03:34:21 PM 41.5460 -112.3430 82° East 495 570 35,000  Level FlightAware ADS-B
Mon 03:35:03 PM 41.5600 -112.2120 82° East 495 570 35,000  Level FlightAware ADS-B
Mon 03:35:48 PM 41.5730 -112.0830 82° East 496 571 35,000  Level FlightAware ADS-B
Mon 03:36:30 PM 41.5860 -111.9550 82° East 496 571 35,000  Level FlightAware ADS-B
Mon 03:37:10 PM 41.5990 -111.8280 82° East 497 572 35,000  Level FlightAware ADS-B
Mon 03:37:52 PM 41.6120 -111.7000 82° East 497 572 35,000  Level FlightAware ADS-B
Mon 03:38:28 PM 41.6230 -111.5890 82° East 497 572 35,000  Level FlightAware ADS-B
Mon 03:39:04 PM 41.6340 -111.4810 82° East 497 572 35,000  Level FlightAware ADS-B
Mon 03:39:49 PM 41.6470 -111.3490 82° East 496 571 35,000  Level FlightAware ADS-B
Mon 03:40:29 PM 41.6580 -111.2460 82° East 496 571 35,000  Level FlightAware ADS-B
Mon 03:41:14 PM 41.6720 -111.0860 83° East 496 571 35,000  Level FlightAware ADS-B
Mon 03:42:00 PM 41.6840 -110.9670 82° East 496 571 35,000  Level FlightAware ADS-B
Mon 03:42:37 PM 41.6940 -110.8710 82° East 496 571 35,000  Level FlightAware ADS-B
Mon 03:43:26 PM 41.7080 -110.7440 82° East 496 571 35,000  Level FlightAware ADS-B
Mon 03:44:14 PM 41.7210 -110.6200 82° East 496 571 35,000  Level FlightAware ADS-B
Mon 03:44:38 PM 41.7270 -110.5580 83° East 496 571 35,000  Level FlightAware ADS-B
Mon 03:45:26 PM 41.7400 -110.4340 82° East 496 571 35,000  Level FlightAware ADS-B
Mon 03:46:27 PM 41.7570 -110.2760 82° East 496 571 35,000  Level FlightAware ADS-B
Mon 03:47:03 PM 41.7660 -110.1830 83° East 496 571 35,000  Level FlightAware ADS-B
Mon 03:47:39 PM 41.7760 -110.0890 82° East 496 571 35,000  Level FlightAware ADS-B
Mon 03:48:27 PM 41.7890 -109.9650 82° East 496 571 35,000  Level FlightAware ADS-B
Mon 03:48:51 PM 41.7960 -109.9030 81° East 496 571 35,000  Level FlightAware ADS-B
Mon 03:49:27 PM 41.8050 -109.8100 83° East 496 571 35,000  Level FlightAware ADS-B
Mon 03:50:14 PM 41.8150 -109.4450 88° East 494 568 35,000  Level FlightAware ADS-B
Mon 03:50:58 PM 41.8250 -109.3100 84° East 493 567 35,000  Level FlightAware ADS-B
Mon 03:51:42 PM 41.8360 -109.1780 84° East 493 567 35,000  Level FlightAware ADS-B
Mon 03:52:16 PM 41.8440 -109.0760 84° East 493 567 35,000  Level FlightAware ADS-B
Mon 03:52:56 PM 41.8530 -108.9530 84° East 492 566 35,000  Level FlightAware ADS-B
Mon 03:53:38 PM 41.8620 -108.8260 85° East 491 565 35,000  Level FlightAware ADS-B
Mon 03:54:17 PM 41.8710 -108.7090 84° East 490 564 35,000  Level FlightAware ADS-B
Mon 03:54:58 PM 41.8800 -108.5860 84° East 490 564 35,000  Level FlightAware ADS-B
Mon 03:55:39 PM 41.8890 -108.4630 84° East 490 564 35,000  Level FlightAware ADS-B
Mon 03:56:16 PM 41.8970 -108.3500 85° East 489 563 35,000  Level FlightAware ADS-B
Mon 03:57:02 PM 41.9060 -108.2120 85° East 490 564 35,000  Level FlightAware ADS-B
Mon 03:57:38 PM 41.9140 -108.1050 84° East 488 562 35,000  Level FlightAware ADS-B
Mon 03:58:28 PM 41.9240 -107.9770 84° East 488 562 35,000  Level FlightAware ADS-B
Mon 03:59:04 PM 41.9310 -107.8840 84° East 488 562 35,000  Level FlightAware ADS-B
Mon 03:59:40 PM 41.9380 -107.7920 84° East 488 562 35,000  Level FlightAware ADS-B
Mon 04:00:27 PM 41.9470 -107.6710 84° East 488 562 35,000  Level FlightAware ADS-B
Mon 04:01:03 PM 41.9550 -107.5790 83° East 488 562 35,000  Level FlightAware ADS-B
Mon 04:01:39 PM 41.9620 -107.4860 84° East 488 562 35,000  Level FlightAware ADS-B
Mon 04:02:17 PM 41.9690 -107.3890 84° East 488 562 35,000  Level FlightAware ADS-B
Mon 04:02:51 PM 41.9760 -107.3020 84° East 488 562 35,000  Level FlightAware ADS-B
Mon 04:03:27 PM 41.9830 -107.2090 84° East 488 562 35,000  Level FlightAware ADS-B
Mon 04:04:15 PM 41.9930 -107.0860 84° East 488 562 35,000  Level FlightAware ADS-B
Mon 04:04:51 PM 42.0000 -106.9940 84° East 488 562 35,000  Level FlightAware ADS-B
Mon 04:05:39 PM 42.0100 -106.8700 84° East 488 562 35,000  Level FlightAware ADS-B
Mon 04:06:29 PM 42.0200 -106.7420 84° East 488 562 35,000  Level FlightAware ADS-B
Mon 04:07:16 PM 42.0180 -106.3720 90° East 483 556 35,000  Level FlightAware ADS-B
Mon 04:07:57 PM 42.0240 -106.2480 86° East 482 555 35,000  Level FlightAware ADS-B
Mon 04:08:43 PM 42.0310 -106.1130 86° East 481 554 35,000  Level FlightAware ADS-B
Mon 04:09:19 PM 42.0360 -106.0050 86° East 481 554 35,000  Level FlightAware ADS-B
Mon 04:10:07 PM 42.0430 -105.8600 86° East 479 551 35,000  Level FlightAware ADS-B
Mon 04:10:48 PM 42.0490 -105.7520 86° East 479 551 35,000  Level FlightAware ADS-B
Mon 04:11:42 PM 42.0560 -105.6160 86° East 479 551 35,000  Level FlightAware ADS-B
Mon 04:12:22 PM 42.0610 -105.5150 86° East 479 551 35,000  Level FlightAware ADS-B
Mon 04:13:06 PM 42.0680 -105.3270 87° East 478 550 35,000  Level FlightAware ADS-B
Mon 04:13:49 PM 42.0730 -105.2000 87° East 479 551 35,000  Level FlightAware ADS-B
Mon 04:14:09 PM 42.0772 -105.1390 85° East 480 552 35,000  Level FlightAware ADS-B
Mon 04:14:40 PM 42.0847 -105.0490 84° East 480 552 35,000  Level FlightAware ADS-B
Mon 04:15:13 PM 42.0934 -104.9500 83° East 480 552 35,000  Level FlightAware ADS-B
Mon 04:15:43 PM 42.1013 -104.8610 83° East 481 554 35,000  Level FlightAware ADS-B
Mon 04:16:19 PM 42.1104 -104.7560 83° East 482 555 35,000  Level FlightAware ADS-B
Mon 04:16:50 PM 42.1184 -104.6640 83° East 482 555 35,000  Level FlightAware ADS-B
Mon 04:17:20 PM 42.1261 -104.5730 83° East 481 554 35,000  Level FlightAware ADS-B
Mon 04:17:56 PM 42.1349 -104.4690 83° East 481 554 35,000 91 Level FlightAware ADS-B
Mon 04:18:26 PM 42.1426 -104.3770 84° East 484 557 35,100 295 Climbing FlightAware ADS-B
Mon 04:18:57 PM 42.1500 -104.2860 84° East 483 556 35,300 295 Climbing FlightAware ADS-B
Mon 04:19:27 PM 42.1575 -104.1950 84° East 481 554 35,400 281 Climbing FlightAware ADS-B
Mon 04:20:01 PM 42.1655 -104.0950 84° East 480 552 35,600 281 Climbing FlightAware ADS-B
Mon 04:20:31 PM 42.1726 -104.0050 84° East 479 551 35,700 300 Climbing FlightAware ADS-B
Mon 04:21:01 PM 42.1798 -103.9160 84° East 479 551 35,900 295 Climbing FlightAware ADS-B
Mon 04:21:32 PM 42.1867 -103.8270 84° East 476 548 36,000 295 Climbing FlightAware ADS-B
Mon 04:22:02 PM 42.1936 -103.7390 84° East 473 544 36,200 300 Climbing FlightAware ADS-B
Mon 04:22:32 PM 42.2003 -103.6510 84° East 471 542 36,300 295 Climbing FlightAware ADS-B
Mon 04:23:03 PM 42.2071 -103.5620 84° East 471 542 36,500 387 Climbing FlightAware ADS-B
Mon 04:23:34 PM 42.2140 -103.4700 84° East 470 541 36,700 295 Climbing FlightAware ADS-B
Mon 04:24:04 PM 42.2206 -103.3820 84° East 468 539 36,800 295 Climbing FlightAware ADS-B
Mon 04:24:35 PM 42.2270 -103.2940 84° East 466 536 37,000 295 Climbing FlightAware ADS-B
Mon 04:25:05 PM 42.2334 -103.2070 84° East 465 535 37,100 300 Climbing FlightAware ADS-B
Mon 04:25:35 PM 42.2396 -103.1200 84° East 465 535 37,300 295 Climbing FlightAware ADS-B
Mon 04:26:06 PM 42.2459 -103.0320 84° East 465 535 37,400 290 Climbing FlightAware ADS-B
Mon 04:26:37 PM 42.2523 -102.9420 84° East 465 535 37,600 308 Climbing FlightAware ADS-B
Mon 04:27:24 PM 42.2615 -102.8080 85° East 464 534 37,800 296 Climbing FlightAware ADS-B
Mon 04:27:58 PM 42.2684 -102.7090 85° East 465 535 38,000 333 Climbing FlightAware ADS-B
Mon 04:28:36 PM 42.2758 -102.5990 85° East 464 534 38,200 261 Climbing FlightAware ADS-B
Mon 04:29:07 PM 42.2817 -102.5100 85° East 463 533 38,300 197 Climbing FlightAware ADS-B
Mon 04:29:37 PM 42.2873 -102.4250 85° East 461 531 38,400 295 Climbing FlightAware ADS-B
Mon 04:30:08 PM 42.2931 -102.3370 85° East 459 528 38,600 364 Climbing FlightAware ADS-B
Mon 04:30:43 PM 42.2995 -102.2370 85° East 458 527 38,800 282 Climbing FlightAware ADS-B
Mon 04:31:33 PM 42.3083 -102.0960 85° East 459 528 39,000 93 Climbing FlightAware ADS-B
Mon 04:32:52 PM 42.3206 -101.8964 85° East 453 521 39,000  Level Minneapolis Center
Mon 04:33:56 PM 42.3319 -101.7136 85° East 451 519 39,000  Level Denver Center
Mon 04:34:57 PM 42.3422 -101.5508 85° East 453 521 39,000  Level Denver Center
Mon 04:35:59 PM 42.3522 -101.3622 86° East 451 519 39,000  Level Denver Center
Mon 04:37:01 PM 42.3619 -101.2003 85° East 451 519 39,000  Level Denver Center
Mon 04:38:03 PM 42.3719 -101.0108 86° East 451 519 39,000  Level Denver Center
Mon 04:39:05 PM 42.3797 -100.8500 86° East 449 517 39,000  Level Denver Center
Mon 04:44:44 PM 42.4256 -99.8769 86° East 445 512 39,000  Level FlightAware ADS-B
Mon 04:45:15 PM 42.4292 -99.7926 87° East 444 511 39,000  Level FlightAware ADS-B
Mon 04:45:45 PM 42.4326 -99.7097 87° East 443 510 39,000  Level FlightAware ADS-B
Mon 04:46:15 PM 42.4360 -99.6262 87° East 443 510 39,000  Level FlightAware ADS-B
Mon 04:46:46 PM 42.4394 -99.5422 87° East 442 509 39,000  Level FlightAware ADS-B
Mon 04:48:29 PM 42.4504 -99.2594 87° East 439 505 39,000  Level FlightAware ADS-B
Mon 04:49:01 PM 42.4536 -99.1728 87° East 437 503 39,000  Level FlightAware ADS-B
Mon 04:49:31 PM 42.4567 -99.0906 87° East 435 501 39,000  Level FlightAware ADS-B
Mon 04:50:01 PM 42.4596 -99.0089 87° East 434 499 39,000  Level FlightAware ADS-B
Mon 04:50:32 PM 42.4625 -98.9266 87° East 433 498 39,000  Level FlightAware ADS-B
Mon 04:51:03 PM 42.4654 -98.8420 87° East 433 498 39,000  Level FlightAware ADS-B
Mon 04:51:37 PM 42.4684 -98.7508 87° East 434 499 39,000  Level FlightAware ADS-B
Mon 04:52:14 PM 42.4720 -98.6499 87° East 436 502 39,000  Level FlightAware ADS-B
Mon 04:52:44 PM 42.4763 -98.5678 86° East 436 502 39,000  Level FlightAware ADS-B
Mon 04:53:15 PM 42.4809 -98.4829 86° East 436 502 39,000  Level FlightAware ADS-B
Mon 04:53:46 PM 42.4851 -98.3995 86° East 436 502 39,000  Level FlightAware ADS-B
Mon 04:54:16 PM 42.4890 -98.3182 86° East 437 503 39,000  Level FlightAware ADS-B
Mon 04:54:47 PM 42.4930 -98.2339 86° East 438 504 39,000  Level FlightAware ADS-B
Mon 04:55:17 PM 42.4968 -98.1517 86° East 439 505 39,000  Level FlightAware ADS-B
Mon 04:55:48 PM 42.5006 -98.0678 86° East 439 505 39,000  Level FlightAware ADS-B
Mon 04:56:19 PM 42.5045 -97.9830 86° East 439 505 39,000  Level FlightAware ADS-B
Mon 04:56:52 PM 42.5085 -97.8924 87° East 439 505 39,000  Level FlightAware ADS-B
Mon 04:57:22 PM 42.5121 -97.8097 87° East 440 506 39,000  Level FlightAware ADS-B
Mon 04:58:15 PM 42.5183 -97.6648 87° East 441 507 39,000  Level FlightAware ADS-B
Mon 04:58:45 PM 42.5219 -97.5814 87° East 442 509 39,000  Level FlightAware ADS-B
Mon 04:59:16 PM 42.5253 -97.4966 87° East 442 509 39,000  Level FlightAware ADS-B
Mon 04:59:46 PM 42.5287 -97.4136 87° East 442 509 39,000  Level FlightAware ADS-B
Mon 05:00:16 PM 42.5320 -97.3304 87° East 442 509 39,000  Level FlightAware ADS-B
Mon 05:00:48 PM 42.5355 -97.2420 87° East 443 510 39,000  Level FlightAware ADS-B
Mon 05:01:19 PM 42.5387 -97.1578 87° East 443 510 39,000  Level FlightAware ADS-B
Mon 05:01:50 PM 42.5419 -97.0712 87° East 444 511 39,000  Level FlightAware ADS-B
Mon 05:02:21 PM 42.5451 -96.9859 87° East 445 512 39,000  Level FlightAware ADS-B
Mon 05:02:52 PM 42.5482 -96.8996 87° East 444 511 39,000  Level FlightAware ADS-B
Mon 05:03:22 PM 42.5511 -96.8161 87° East 444 511 39,000  Level FlightAware ADS-B
Mon 05:03:52 PM 42.5540 -96.7328 87° East 443 510 39,000  Level FlightAware ADS-B
Mon 05:04:27 PM 42.5572 -96.6354 87° East 442 509 39,000  Level FlightAware ADS-B
Mon 05:04:58 PM 42.5601 -96.5497 87° East 441 507 39,000  Level FlightAware ADS-B
Mon 05:05:29 PM 42.5628 -96.4656 87° East 441 507 39,000  Level FlightAware ADS-B
Mon 05:05:59 PM 42.5654 -96.3832 88° East 440 506 39,000  Level FlightAware ADS-B
Mon 05:06:29 PM 42.5679 -96.2996 88° East 440 506 39,000  Level FlightAware ADS-B
Mon 05:06:59 PM 42.5704 -96.2167 88° East 439 505 39,000  Level FlightAware ADS-B
Mon 05:07:29 PM 42.5728 -96.1341 88° East 439 505 39,000  Level FlightAware ADS-B
Mon 05:07:59 PM 42.5752 -96.0514 88° East 439 505 39,000  Level FlightAware ADS-B
Mon 05:08:30 PM 42.5775 -95.9686 88° East 441 507 39,000  Level FlightAware ADS-B
Mon 05:09:00 PM 42.5797 -95.8854 88° East 441 507 39,000  Level FlightAware ADS-B
Mon 05:09:41 PM 42.5827 -95.7729 88° East 441 507 39,000  Level FlightAware ADS-B
Mon 05:10:11 PM 42.5848 -95.6892 88° East 442 509 39,000  Level FlightAware ADS-B
Mon 05:10:41 PM 42.5869 -95.6056 88° East 444 511 39,000  Level FlightAware ADS-B
Mon 05:11:11 PM 42.5889 -95.5220 88° East 445 512 39,000  Level FlightAware ADS-B
Mon 05:11:42 PM 42.5908 -95.4369 88° East 447 514 39,000  Level FlightAware ADS-B
Mon 05:12:12 PM 42.5927 -95.3530 88° East 447 514 39,000  Level FlightAware ADS-B
Mon 05:12:42 PM 42.5945 -95.2679 88° East 448 516 39,000  Level FlightAware ADS-B
Mon 05:13:13 PM 42.5964 -95.1809 88° East 449 517 39,000  Level FlightAware ADS-B
Mon 05:13:54 PM 42.5987 -95.0646 88° East 449 517 39,000  Level FlightAware ADS-B
Mon 05:14:24 PM 42.6003 -94.9801 88° East 451 519 39,000  Level FlightAware ADS-B
Mon 05:14:55 PM 42.6019 -94.8947 89° East 451 519 39,000  Level FlightAware ADS-B
Mon 05:15:25 PM 42.6034 -94.8089 89° East 451 519 39,000  Level FlightAware ADS-B
Mon 05:16:08 PM 42.6054 -94.6889 89° East 451 519 39,000  Level FlightAware ADS-B
Mon 05:16:38 PM 42.6068 -94.6029 89° East 451 519 39,000  Level FlightAware ADS-B
Mon 05:17:09 PM 42.6080 -94.5169 89° East 451 519 39,000  Level FlightAware ADS-B
Mon 05:17:39 PM 42.6093 -94.4307 89° East 452 520 39,000  Level FlightAware ADS-B
Mon 05:18:10 PM 42.6105 -94.3444 89° East 452 520 39,000  Level FlightAware ADS-B
Mon 05:18:41 PM 42.6116 -94.2550 89° East 452 520 39,000  Level FlightAware ADS-B
Mon 05:19:12 PM 42.6123 -94.1686 89° East 451 519 39,000  Level FlightAware ADS-B
Mon 05:19:43 PM 42.6130 -94.0794 89° East 451 519 39,000  Level FlightAware ADS-B
Mon 05:20:30 PM 42.6140 -93.9493 89° East 450 518 39,000  Level FlightAware ADS-B
Mon 05:21:00 PM 42.6145 -93.8645 90° East 451 519 39,000  Level FlightAware ADS-B
Mon 05:21:30 PM 42.6150 -93.7788 90° East 450 518 39,000  Level FlightAware ADS-B
Mon 05:22:01 PM 42.6154 -93.6910 90° East 450 518 39,000  Level FlightAware ADS-B
Mon 05:22:38 PM 42.6160 -93.5880 90° East 450 518 39,000  Level FlightAware ADS-B
Mon 05:23:18 PM 42.6160 -93.4770 90° East 450 518 39,000  Level FlightAware ADS-B
Mon 05:23:59 PM 42.6170 -93.3630 89° East 451 519 39,000  Level FlightAware ADS-B
Mon 05:24:42 PM 42.6170 -93.2400 90° East 450 518 39,000  Level FlightAware ADS-B
Mon 05:25:24 PM 42.6170 -93.1220 90° East 450 518 39,000  Level FlightAware ADS-B
Mon 05:26:02 PM 42.6170 -93.0120 90° East 450 518 39,000  Level FlightAware ADS-B
Mon 05:26:46 PM 42.6160 -92.8890 91° East 449 517 39,000  Level FlightAware ADS-B
Mon 05:27:30 PM 42.6160 -92.7690 90° East 449 517 39,000  Level FlightAware ADS-B
Mon 05:28:11 PM 42.6160 -92.6570 90° East 450 518 39,000  Level FlightAware ADS-B
Mon 05:28:55 PM 42.6150 -92.5320 91° East 450 518 39,000  Level FlightAware ADS-B
Mon 05:29:27 PM 42.6140 -92.4430 91° East 450 518 39,000  Level FlightAware ADS-B
Mon 05:29:55 PM 42.6140 -92.3590 90° East 451 519 39,000  Level FlightAware ADS-B
Mon 05:30:26 PM 42.6130 -92.3080 92° East 451 519 39,000  Level FlightAware ADS-B
Mon 05:31:55 PM 42.6110 -92.0200 90° East 451 519 39,000  Level FlightAware ADS-B
Mon 05:32:37 PM 42.6100 -91.9000 91° East 451 519 39,000  Level FlightAware ADS-B
Mon 05:33:21 PM 42.6080 -91.7760 91° East 451 519 39,000  Level FlightAware ADS-B
Mon 05:33:57 PM 42.6070 -91.6760 91° East 451 519 39,000  Level FlightAware ADS-B
Mon 05:34:33 PM 42.6060 -91.5740 91° East 451 519 39,000  Level FlightAware ADS-B
Mon 05:35:17 PM 42.6040 -91.4490 91° East 451 519 39,000  Level FlightAware ADS-B
Mon 05:36:01 PM 42.6020 -91.3260 91° East 451 519 39,000  Level FlightAware ADS-B
Mon 05:36:43 PM 42.6000 -91.2110 91° East 451 519 39,000  Level FlightAware ADS-B
Mon 05:37:26 PM 42.5980 -91.0870 91° East 451 519 39,000  Level FlightAware ADS-B
Mon 05:38:05 PM 42.5960 -90.9790 91° East 451 519 39,000  Level FlightAware ADS-B
Mon 05:38:39 PM 42.5940 -90.8820 92° East 452 520 39,000  Level FlightAware ADS-B
Mon 05:39:27 PM 42.5910 -90.7470 92° East 452 520 39,000  Level FlightAware ADS-B
Mon 05:40:06 PM 42.5890 -90.6390 91° East 452 520 39,000  Level FlightAware ADS-B
Mon 05:40:47 PM 42.5860 -90.5240 92° East 452 520 39,000  Level FlightAware ADS-B
Mon 05:41:31 PM 42.5830 -90.3970 92° East 452 520 39,000  Level FlightAware ADS-B
Mon 05:42:10 PM 42.5800 -90.2860 92° East 451 519 39,000  Level FlightAware ADS-B
Mon 05:42:56 PM 42.5770 -90.1550 92° East 451 519 39,000  Level FlightAware ADS-B
Mon 05:43:31 PM 42.5740 -90.0560 92° East 451 519 39,000  Level FlightAware ADS-B
Mon 05:44:11 PM 42.5710 -89.9440 92° East 451 519 39,000  Level FlightAware ADS-B
Mon 05:44:56 PM 42.5680 -89.8170 92° East 452 520 39,000  Level FlightAware ADS-B
Mon 05:45:35 PM 42.5640 -89.7060 93° East 452 520 39,000  Level FlightAware ADS-B
Mon 05:46:13 PM 42.5610 -89.6020 92° East 452 520 39,000  Level FlightAware ADS-B
Mon 05:46:57 PM 42.5570 -89.4750 92° East 452 520 39,000  Level FlightAware ADS-B
Mon 05:47:40 PM 42.5540 -89.3540 92° East 453 521 39,000  Level FlightAware ADS-B
Mon 05:48:23 PM 42.5640 -89.2360 83° East 453 521 39,000  Level FlightAware ADS-B
Mon 05:49:07 PM 42.5790 -89.1070 81° East 454 522 39,000  Level FlightAware ADS-B
Mon 05:49:46 PM 42.5880 -89.0000 83° East 455 524 39,000  Level FlightAware ADS-B
Mon 05:50:27 PM 42.5680 -88.8850 103° East 456 525 39,000  Level FlightAware ADS-B
Mon 05:51:10 PM 42.5310 -88.7730 114° Southeast 456 525 39,000  Level FlightAware ADS-B
Mon 05:51:55 PM 42.4910 -88.6560 115° Southeast 456 525 39,000  Level FlightAware ADS-B
Mon 05:52:30 PM 42.4610 -88.5680 115° Southeast 456 525 39,000  Level FlightAware ADS-B
Mon 05:53:11 PM 42.4260 -88.4620 114° Southeast 457 526 39,000  Level FlightAware ADS-B
Mon 05:53:55 PM 42.3870 -88.3460 114° Southeast 457 526 39,000  Level FlightAware ADS-B
Mon 05:54:35 PM 42.3550 -88.2470 114° Southeast 457 526 39,000  Level FlightAware ADS-B
Mon 05:55:11 PM 42.3220 -88.1480 114° Southeast 456 525 39,000  Level FlightAware ADS-B
Mon 05:55:58 PM 42.2820 -88.0260 114° Southeast 456 525 39,000  Level FlightAware ADS-B
Mon 05:56:43 PM 42.2450 -87.9120 114° Southeast 455 524 39,000  Level FlightAware ADS-B
Mon 05:57:19 PM 42.2140 -87.8180 114° Southeast 455 524 39,000  Level FlightAware ADS-B
Mon 05:57:59 PM 42.1790 -87.7100 114° Southeast 455 524 39,000  Level FlightAware ADS-B
Mon 05:58:35 PM 42.1480 -87.6170 114° Southeast 454 522 39,000  Level FlightAware ADS-B
Mon 05:59:16 PM 42.1150 -87.5150 114° Southeast 452 520 39,000  Level FlightAware ADS-B
Mon 05:59:52 PM 42.0840 -87.4210 114° Southeast 452 520 39,000  Level FlightAware ADS-B
Mon 06:00:33 PM 42.0490 -87.3160 114° Southeast 450 518 39,000  Level FlightAware ADS-B
Mon 06:01:32 PM 42.0000 -87.1650 114° Southeast 447 514 39,000  Level FlightAware ADS-B
Mon 06:02:16 PM 41.9690 -87.0510 110° East 444 511 39,000  Level FlightAware ADS-B
Mon 06:03:01 PM 41.9460 -86.9340 105° East 444 511 39,000  Level FlightAware ADS-B
Mon 06:03:38 PM 41.9300 -86.8320 102° East 445 512 39,000  Level FlightAware ADS-B
Mon 06:04:28 PM 41.9170 -86.6960 97° East 446 513 39,000  Level FlightAware ADS-B
Mon 06:05:12 PM 41.9060 -86.5780 97° East 444 511 39,000  Level FlightAware ADS-B
Mon 06:05:56 PM 41.8920 -86.4570 99° East 444 511 39,000  Level FlightAware ADS-B
Mon 06:06:28 PM 41.8820 -86.3680 99° East 443 510 39,000  Level FlightAware ADS-B
Mon 06:07:12 PM 41.8700 -86.2480 98° East 444 511 39,000  Level FlightAware ADS-B
Mon 06:07:52 PM 41.8580 -86.1400 98° East 446 513 39,000  Level FlightAware ADS-B
Mon 06:08:37 PM 41.8450 -86.0180 98° East 448 516 39,000  Level FlightAware ADS-B
Mon 06:09:17 PM 41.8330 -85.9040 98° East 449 517 39,000  Level FlightAware ADS-B
Mon 06:09:58 PM 41.8200 -85.7910 99° East 448 516 39,000  Level FlightAware ADS-B
Mon 06:10:41 PM 41.8070 -85.6730 98° East 450 518 39,000  Level FlightAware ADS-B
Mon 06:11:36 PM 41.7940 -85.5580 99° East 451 519 39,000  Level FlightAware ADS-B
Mon 06:12:15 PM 41.7780 -85.4190 99° East 451 519 39,000  Level FlightAware ADS-B
Mon 06:13:40 PM 41.7520 -85.1900 99° East 448 516 39,000  Level FlightAware ADS-B
Mon 06:14:26 PM 41.7370 -85.0650 99° East 448 516 39,000  Level FlightAware ADS-B
Mon 06:15:33 PM 41.7210 -84.9270 99° East 448 516 39,000  Level FlightAware ADS-B
Mon 06:16:13 PM 41.7070 -84.8080 99° East 446 513 39,000  Level FlightAware ADS-B
Mon 06:17:03 PM 41.7000 -84.6330 93° East 445 512 39,000  Level FlightAware ADS-B
Mon 06:17:43 PM 41.7090 -84.5210 84° East 445 512 39,000  Level FlightAware ADS-B
Mon 06:18:19 PM 41.7200 -84.4240 81° East 445 512 39,000  Level FlightAware ADS-B
Mon 06:19:09 PM 41.7360 -84.2850 81° East 446 513 39,000  Level FlightAware ADS-B
Mon 06:19:37 PM 41.7450 -84.2100 81° East 446 513 39,000  Level FlightAware ADS-B
Mon 06:20:27 PM 41.7600 -84.0740 82° East 446 513 39,000  Level FlightAware ADS-B
Mon 06:21:07 PM 41.7720 -83.9630 82° East 445 512 39,000  Level FlightAware ADS-B
Mon 06:21:47 PM 41.7840 -83.8540 82° East 447 514 39,000  Level FlightAware ADS-B
Mon 06:22:31 PM 41.7970 -83.7330 82° East 446 513 39,000  Level FlightAware ADS-B
Mon 06:23:15 PM 41.8090 -83.6130 82° East 448 516 39,000  Level FlightAware ADS-B
Mon 06:23:55 PM 41.8210 -83.5040 82° East 454 522 39,000  Level FlightAware ADS-B
Mon 06:24:35 PM 41.8320 -83.3910 83° East 458 527 39,000  Level FlightAware ADS-B
Mon 06:25:19 PM 41.8450 -83.2660 82° East 460 529 39,000  Level FlightAware ADS-B
Mon 06:25:59 PM 41.8560 -83.1540 82° East 462 532 39,000  Level FlightAware ADS-B
Mon 06:26:43 PM 41.8690 -83.0310 82° East 463 533 39,000  Level FlightAware ADS-B
Mon 06:27:23 PM 41.8800 -82.9150 83° East 463 533 39,000  Level FlightAware ADS-B
Mon 06:28:07 PM 41.8930 -82.7910 82° East 464 534 39,000  Level FlightAware ADS-B
Mon 06:28:49 PM 41.9040 -82.6710 83° East 465 535 39,000  Level FlightAware ADS-B
Mon 06:29:26 PM 41.9140 -82.5660 83° East 464 534 39,000  Level FlightAware ADS-B
Mon 06:30:10 PM 41.9260 -82.4430 82° East 464 534 39,000  Level FlightAware ADS-B
Mon 06:30:55 PM 41.9370 -82.3200 83° East 464 534 39,000  Level FlightAware ADS-B
Mon 06:31:29 PM 41.9470 -82.2150 83° East 465 535 39,000  Level FlightAware ADS-B
Mon 06:32:10 PM 41.9580 -82.0970 83° East 464 534 39,000  Level FlightAware ADS-B
Mon 06:32:50 PM 41.9680 -81.9840 83° East 463 533 39,000  Level FlightAware ADS-B
Mon 06:33:30 PM 41.9790 -81.8680 83° East 463 533 39,000  Level FlightAware ADS-B
Mon 06:34:09 PM 41.9880 -81.7570 84° East 462 532 39,000  Level FlightAware ADS-B
Mon 06:34:52 PM 41.9990 -81.6380 83° East 461 531 39,000  Level FlightAware ADS-B
Mon 06:35:32 PM 42.0090 -81.5230 83° East 461 531 39,000  Level FlightAware ADS-B
Mon 06:36:18 PM 42.0200 -81.3920 84° East 460 529 39,000  Level FlightAware ADS-B
Mon 06:36:59 PM 42.0300 -81.2750 83° East 460 529 39,000  Level FlightAware ADS-B
Mon 06:37:42 PM 42.0400 -81.1530 84° East 460 529 39,000  Level FlightAware ADS-B
Mon 06:38:18 PM 42.0480 -81.0520 84° East 460 529 39,000  Level FlightAware ADS-B
Mon 06:39:13 PM 42.0490 -80.8930 89° East 459 528 39,000  Level FlightAware ADS-B
Mon 06:39:52 PM 42.0430 -80.7840 94° East 457 526 39,000  Level FlightAware ADS-B
Mon 06:40:28 PM 42.0370 -80.6920 95° East 458 527 39,000  Level FlightAware ADS-B
Mon 06:41:08 PM 42.0290 -80.5780 95° East 458 527 39,000  Level FlightAware ADS-B
Mon 06:41:53 PM 42.0210 -80.4500 95° East 457 526 39,000  Level FlightAware ADS-B
Mon 06:42:33 PM 42.0130 -80.3390 96° East 457 526 39,000  Level FlightAware ADS-B
Mon 06:43:18 PM 42.0050 -80.2110 95° East 457 526 39,000  Level FlightAware ADS-B
Mon 06:43:58 PM 41.9960 -80.0960 96° East 458 527 39,000  Level FlightAware ADS-B
Mon 06:44:38 PM 41.9890 -79.9850 95° East 458 527 39,000  Level FlightAware ADS-B
Mon 06:45:25 PM 41.9810 -79.8870 96° East 459 528 39,000  Level FlightAware ADS-B
Mon 06:46:16 PM 41.9740 -79.7910 96° East 459 528 39,000  Level FlightAware ADS-B
Mon 06:46:59 PM 41.9580 -79.5770 96° East 460 529 39,000  Level FlightAware ADS-B
Mon 06:47:43 PM 41.9490 -79.4510 95° East 461 531 39,000  Level FlightAware ADS-B
Mon 06:48:26 PM 41.9390 -79.3310 96° East 460 529 39,000  Level FlightAware ADS-B
Mon 06:49:07 PM 41.9300 -79.2140 96° East 459 528 39,000  Level FlightAware ADS-B
Mon 06:49:51 PM 41.9200 -79.0890 96° East 459 528 39,000  Level FlightAware ADS-B
Mon 06:50:32 PM 41.9110 -78.9750 96° East 459 528 39,000  Level FlightAware ADS-B
Mon 06:51:13 PM 41.9010 -78.8570 96° East 459 528 39,000  Level FlightAware ADS-B
Mon 06:51:54 PM 41.8920 -78.7420 96° East 458 527 39,000  Level FlightAware ADS-B
Mon 06:52:28 PM 41.8830 -78.6450 97° East 458 527 39,000  Level FlightAware ADS-B
Mon 06:53:12 PM 41.8730 -78.5210 96° East 458 527 39,000  Level FlightAware ADS-B
Mon 06:53:54 PM 41.8620 -78.4010 97° East 458 527 39,000  Level FlightAware ADS-B
Mon 06:54:26 PM 41.8550 -78.3130 96° East 458 527 39,000  Level FlightAware ADS-B
Mon 06:55:12 PM 41.8430 -78.1820 97° East 458 527 39,000  Level FlightAware ADS-B
Mon 06:55:52 PM 41.8340 -78.0720 96° East 458 527 39,000  Level FlightAware ADS-B
Mon 06:56:36 PM 41.8220 -77.9490 97° East 458 527 39,000  Level FlightAware ADS-B
Mon 06:57:16 PM 41.8120 -77.8350 97° East 458 527 39,000  Level FlightAware ADS-B
Mon 06:57:56 PM 41.8020 -77.7220 97° East 458 527 39,000  Level FlightAware ADS-B
Mon 06:58:40 PM 41.7900 -77.5970 97° East 458 527 39,000  Level FlightAware ADS-B
Mon 06:59:24 PM 41.7670 -77.4790 105° East 458 527 39,000  Level FlightAware ADS-B
Mon 07:00:28 PM 41.7300 -77.3390 109° East 458 527 39,000  Level FlightAware ADS-B
Mon 07:01:28 PM 41.6780 -77.1500 110° East 459 528 39,000  Level FlightAware ADS-B
Mon 07:01:58 PM 41.6560 -77.0680 110° East 458 527 39,000  Level FlightAware ADS-B
Mon 07:02:42 PM 41.6240 -76.9510 110° East 459 528 39,000  Level FlightAware ADS-B
Mon 07:03:07 PM 41.6064 -76.8847 110° East 460 529 39,000  Level FlightAware ADS-B
Mon 07:03:38 PM 41.5836 -76.8013 110° East 459 528 39,000  Level FlightAware ADS-B
Mon 07:04:11 PM 41.5600 -76.7150 110° East 460 529 39,000  Level FlightAware ADS-B
Mon 07:04:42 PM 41.5371 -76.6315 110° East 460 529 39,000  Level FlightAware ADS-B
Mon 07:05:13 PM 41.5146 -76.5499 110° East 460 529 39,000  Level FlightAware ADS-B
Mon 07:05:45 PM 41.4911 -76.4648 110° East 460 529 39,000  Level FlightAware ADS-B
Mon 07:06:23 PM 41.4630 -76.3636 110° East 461 531 39,000 -86 Level FlightAware ADS-B
Mon 07:06:55 PM 41.4390 -76.2778 110° East 460 529 38,900 -571 Descending FlightAware ADS-B
Mon 07:07:26 PM 41.4159 -76.1954 110° East 460 529 38,400 -1,714 Descending FlightAware ADS-B
Mon 07:07:58 PM 41.3923 -76.1114 111° Southeast 467 537 37,100 -2,613 Descending FlightAware ADS-B
Mon 07:08:28 PM 41.3695 -76.0303 111° Southeast 468 539 35,700 -2,754 Descending FlightAware ADS-B
Mon 07:08:59 PM 41.3458 -75.9461 111° Southeast 465 535 34,300 -3,097 Descending FlightAware ADS-B
Mon 07:09:30 PM 41.3229 -75.8652 111° Southeast 471 542 32,500 -3,714 Descending FlightAware ADS-B
Mon 07:10:02 PM 41.2977 -75.7766 111° Southeast 473 544 30,400 -3,231 Descending FlightAware ADS-B
Mon 07:10:35 PM 41.2724 -75.6905 111° Southeast 455 524 29,000 -2,438 Descending FlightAware ADS-B
Mon 07:11:06 PM 41.2472 -75.6121 113° Southeast 439 505 27,800 -2,459 Descending FlightAware ADS-B
Mon 07:11:36 PM 41.2220 -75.5364 114° Southeast 455 524 26,500 -2,613 Descending FlightAware ADS-B
Mon 07:12:08 PM 41.1946 -75.4548 114° Southeast 460 529 25,100 -2,667 Descending FlightAware ADS-B
Mon 07:12:39 PM 41.1674 -75.3740 114° Southeast 453 521 23,700 -1,969 Descending FlightAware ADS-B
Mon 07:13:12 PM 41.1400 -75.2930 114° Southeast 453 521 23,000 -667 Descending FlightAware ADS-B
Mon 07:13:42 PM 41.1144 -75.2175 114° Southeast 440 506 23,000  Level FlightAware ADS-B
Mon 07:14:13 PM 41.0890 -75.1426 114° Southeast 436 502 23,000  Level FlightAware ADS-B
Mon 07:14:48 PM 41.0598 -75.0562 114° Southeast 437 503 23,000  Level FlightAware ADS-B
Mon 07:15:19 PM 41.0343 -74.9810 114° Southeast 438 504 23,000  Level FlightAware ADS-B
Mon 07:15:46 PM 41.0121 -74.9159 114° Southeast 438 504 23,000 -279 Level FlightAware ADS-B
Mon 07:16:02 PM 41.0010 -74.8760 110° East 434 499 22,800 -1,161 Descending FlightAware ADS-B
Mon 07:16:17 PM 40.9931 -74.8359 105° East 431 496 22,400 -1,235 Descending FlightAware ADS-B
Mon 07:16:36 PM 40.9866 -74.7879 100° East 427 491 22,100 -982 Descending FlightAware ADS-B
Mon 07:17:12 PM 40.9765 -74.6949 98° East 420 483 21,500 -1,059 Descending FlightAware ADS-B
Mon 07:17:44 PM 40.9682 -74.6146 98° East 413 475 20,900 -1,161 Descending FlightAware ADS-B
Mon 07:18:14 PM 40.9602 -74.5392 98° East 410 472 20,300 -800 Descending FlightAware ADS-B
Mon 07:18:44 PM 40.9520 -74.4647 98° East 412 474 20,100 -484 Descending FlightAware ADS-B
Mon 07:19:16 PM 40.9434 -74.3876 98° East 394 453 19,800 -762 Descending FlightAware ADS-B
Mon 07:19:47 PM 40.9354 -74.3155 98° East 380 437 19,300 -787 Descending FlightAware ADS-B
Mon 07:20:17 PM 40.9279 -74.2487 98° East 358 412 19,000 -300 Descending FlightAware ADS-B
Mon 07:20:47 PM 40.9206 -74.1854 99° East 344 396 19,000  Level FlightAware ADS-B
Mon 07:20:56 PM 40.9184 -74.1670 99° East 344 396 19,000  Level FlightAware ADS-B
Mon 07:21:12 PM 40.9112 -74.1344 106° East 347 399 19,000  Level FlightAware ADS-B
Mon 07:21:17 PM 40.9085 -74.1260 113° Southeast 348 400 19,000  Level FlightAware ADS-B
Mon 07:21:21 PM 40.9058 -74.1185 115° Southeast 349 402 19,000  Level FlightAware ADS-B
Mon 07:21:27 PM 40.9012 -74.1073 119° Southeast 349 402 19,000 -923 Level FlightAware ADS-B
Mon 07:21:47 PM 40.8844 -74.0708 121° Southeast 348 400 18,600 -1,273 Descending FlightAware ADS-B
Mon 07:22:00 PM 40.8722 -74.0463 123° Southeast 347 399 18,300 -1,400 Descending FlightAware ADS-B
Mon 07:22:17 PM 40.8578 -74.0175 123° Southeast 343 395 17,900 -1,459 Descending FlightAware ADS-B
Mon 07:22:37 PM 40.8404 -73.9829 124° Southeast 341 392 17,400 -1,548 Descending FlightAware ADS-B
Mon 07:22:48 PM 40.8304 -73.9630 124° Southeast 339 390 17,100 -1,742 Descending FlightAware ADS-B
Mon 07:23:08 PM 40.8137 -73.9294 123° Southeast 337 388 16,500 -1,742 Descending FlightAware ADS-B
Mon 07:23:19 PM 40.8048 -73.9114 123° Southeast 332 382 16,200 -1,818 Descending FlightAware ADS-B
Mon 07:23:41 PM 40.7872 -73.8730 121° Southeast 326 375 15,500 -2,036 Descending FlightAware ADS-B
Mon 07:24:15 PM 40.7677 -73.8113 113° Southeast 322 371 14,300 -2,108 Descending FlightAware ADS-B
Mon 07:24:18 PM 40.7659 -73.8071 120° Southeast 325 374 14,200 -2,667 Descending FlightAware ADS-B
Mon 07:24:24 PM 40.7603 -73.7971 126° Southeast 326 375 13,900 -2,400 Descending FlightAware ADS-B
Mon 07:24:38 PM 40.7454 -73.7778 136° Southeast 328 377 13,400 -1,429 Descending FlightAware ADS-B
Mon 07:25:27 PM 40.6880 -73.7170 141° Southeast 327 376 12,400 -1,292 Descending FlightAware ADS-B
Mon 07:25:43 PM 40.6660 -73.7080 163° South 325 374 12,000 -1,742 Descending FlightAware ADS-B
Mon 07:25:58 PM 40.6417 -73.7005 167° South 327 376 11,500 -1,800 Descending FlightAware ADS-B
Mon 07:26:03 PM 40.6353 -73.6986 167° South 323 372 11,400 -1,667 Descending FlightAware ADS-B
Mon 07:26:34 PM 40.5893 -73.6849 167° South 319 367 10,500 -1,800 Descending FlightAware ADS-B
Mon 07:26:53 PM 40.5624 -73.6767 167° South 314 361 9,900 -1,714 Descending FlightAware ADS-B
Mon 07:27:09 PM 40.5409 -73.6699 166° South 310 357 9,500 -1,548 Descending FlightAware ADS-B
Mon 07:27:24 PM 40.5195 -73.6632 167° South 309 356 9,100 -1,455 Descending FlightAware ADS-B
Mon 07:27:42 PM 40.4946 -73.6554 167° South 308 354 8,700 -1,235 Descending FlightAware ADS-B
Mon 07:27:58 PM 40.4721 -73.6481 166° South 306 352 8,400 -1,355 Descending FlightAware ADS-B
Mon 07:28:13 PM 40.4513 -73.6411 166° South 304 350 8,000 -1,091 Descending FlightAware ADS-B
Mon 07:28:31 PM 40.4274 -73.6334 166° South 296 341 7,800 -750 Descending FlightAware ADS-B
Mon 07:28:45 PM 40.4095 -73.6339 181° South 287 330 7,600 -632 Descending FlightAware ADS-B
Mon 07:28:50 PM 40.4034 -73.6361 195° South 280 322 7,600 -857 Level FlightAware ADS-B
Mon 07:29:06 PM 40.3844 -73.6462 202° Southwest 276 318 7,300 -938 Descending FlightAware ADS-B
Mon 07:29:22 PM 40.3661 -73.6566 203° Southwest 267 307 7,100 -938 Descending FlightAware ADS-B
Mon 07:29:38 PM 40.3484 -73.6663 203° Southwest 259 298 6,800 -1,050 Descending FlightAware ADS-B
Mon 07:30:02 PM 40.3226 -73.6823 205° Southwest 246 283 6,400 -1,135 Descending FlightAware ADS-B
Mon 07:30:15 PM 40.3137 -73.6962 230° Southwest 231 266 6,100 -1,154 Descending FlightAware ADS-B
Mon 07:30:28 PM 40.3088 -73.7119 248° West 222 255 5,900 -1,273 Descending FlightAware ADS-B
Mon 07:30:48 PM 40.3025 -73.7377 252° West 225 259 5,400 -1,650 Descending FlightAware ADS-B
Mon 07:31:08 PM 40.2984 -73.7646 259° West 223 257 4,800 -1,655 Descending FlightAware ADS-B
Mon 07:31:17 PM 40.3003 -73.7760 282° West 219 252 4,600 -1,500 Descending FlightAware ADS-B
Mon 07:31:20 PM 40.3016 -73.7806 290° West 217 250 4,500 -1,622 Descending FlightAware ADS-B
Mon 07:31:54 PM 40.3154 -73.8205 294° West 216 249 3,600 -1,279 Descending FlightAware ADS-B
Mon 07:32:21 PM 40.3264 -73.8508 295° West 212 244 3,200 -652 Descending FlightAware ADS-B
Mon 07:32:40 PM 40.3337 -73.8716 295° West 192 221 3,100 -343 Descending FlightAware ADS-B
Mon 07:32:56 PM 40.3395 -73.8878 295° West 183 211 3,000 -545 Descending FlightAware ADS-B
Mon 07:33:13 PM 40.3455 -73.9050 295° West 182 209 2,800 -235 Descending FlightAware ADS-B
Mon 07:33:47 PM 40.3689 -73.9203 334° Northwest 182 209 2,800  Level FlightAware ADS-B
Mon 07:34:05 PM 40.3837 -73.9200 North 182 209 2,800  Level FlightAware ADS-B
Mon 07:34:10 PM 40.3881 -73.9199 North 172 198 2,800  Level FlightAware ADS-B
Mon 07:34:26 PM 40.4007 -73.9195 North 170 196 2,800  Level FlightAware ADS-B
Mon 07:34:49 PM 40.4188 -73.9190 North 169 194 2,800  Level FlightAware ADS-B
Mon 07:35:05 PM 40.4312 -73.9161 10° North 169 194 2,800  Level FlightAware ADS-B
Mon 07:35:40 PM 40.4560 -73.9030 22° Northeast 172 198 2,800  Level FlightAware ADS-B
Mon 07:36:08 PM 40.4740 -73.8890 31° Northeast 163 188 2,800  Level FlightAware ADS-B
Mon 07:36:27 PM 40.4860 -73.8790 32° Northeast 158 182 2,800 -383 Level FlightAware ADS-B
Mon 07:36:55 PM 40.5030 -73.8660 30° Northeast 151 174 2,500 -750 Descending FlightAware ADS-B
Mon 07:37:31 PM 40.5250 -73.8490 30° Northeast 148 170 2,000 -750 Descending FlightAware ADS-B
Mon 07:37:59 PM 40.5410 -73.8360 32° Northeast 145 167 1,700 -750 Descending FlightAware ADS-B
Mon 07:38:27 PM 40.5570 -73.8240 30° Northeast 144 166 1,300 -750 Descending FlightAware ADS-B
Mon 07:38:55 PM 40.5720 -73.8120 31° Northeast 128 147 1,000 -692 Descending FlightAware ADS-B
Mon 07:39:19 PM 40.5850 -73.8020 30° Northeast 129 148 700 -638 Descending FlightAware ADS-B
Mon 07:39:42 PM 40.5970 -73.7920 32° Northeast 132 152 500 -679 Descending FlightAware ADS-B
Mon 07:40:12 PM 40.6130 -73.7800 30° Northeast 132 152 100 -800 Descending FlightAware ADS-B
Mon 07:40:39 PM 40.6270 -73.7690 31° Northeast 140 161 -222 Descending FlightAware ADS-B
Mon 07:41:07 PM 40.6400 -73.7590 30° Northeast 51 59  Level FlightAware ADS-B
Mon 07:41:19 PM 40.6410 -73.7590 360° North 25 29  Level FlightAware ADS-B
Mon 07:41:53 PM 40.6430 -73.7610 323° Northwest 20 23  Level FlightAware ADS-B
Mon 07:42:24 PM 40.6430 -73.7650 270° West 22 25  Level FlightAware ADS-B
Mon 07:42:40 PM 40.6420 -73.7670 237° Southwest 21 24  Level FlightAware ADS-B
Mon 07:43:06 PM 40.6390 -73.7690 207° Southwest 25 29  Level FlightAware ADS-B

Login

Don't have an account? Register now (free) for customized features, flight alerts, and more!